Time;durP1;ratioP1;P1;durP2;ratioP2;P2;SDS_P1;SDS_P2;PMS_P1;PMS_P2;Temp;Humidity;BMP_temperature;BMP_pressure;BME280_temperature;BME280_humidity;BME280_pressure;Samples;Min_cycle;Max_cycle;Signal;HPM_P1;HPM_P2
2022/07/27 00:01:25;;;;;;;12.38;4.95;;;27.60;96.70;;;;;;5083456;28;20054;-85
2022/07/27 00:03:53;;;;;;;9.73;4.00;;;28.00;96.70;;;;;;5090390;28;20052;-84
2022/07/27 00:06:21;;;;;;;9.07;4.20;;;28.10;96.70;;;;;;5072375;28;20135;-85
2022/07/27 00:08:49;;;;;;;5.60;3.90;;;28.20;96.70;;;;;;5074867;28;20055;-84
2022/07/27 00:11:17;;;;;;;10.50;4.28;;;28.40;96.70;;;;;;5087632;28;20044;-85
2022/07/27 00:13:46;;;;;;;9.57;4.93;;;28.20;96.70;;;;;;5085662;28;20481;-85
2022/07/27 00:16:14;;;;;;;6.55;5.18;;;28.10;96.70;;;;;;5080565;28;20036;-85
2022/07/27 00:18:44;;;;;;;8.18;5.50;;;28.00;96.70;;;;;;5076823;28;20123;-84
2022/07/27 00:21:12;;;;;;;8.40;5.22;;;27.80;96.70;;;;;;5082380;28;20047;-84
2022/07/27 00:23:40;;;;;;;6.60;4.82;;;27.50;96.70;;;;;;5087820;28;20555;-84
2022/07/27 00:26:08;;;;;;;6.55;4.95;;;27.50;96.70;;;;;;5080985;28;20048;-85
2022/07/27 00:28:36;;;;;;;7.05;5.03;;;27.50;96.70;;;;;;5085938;28;20045;-85
2022/07/27 00:31:05;;;;;;;10.57;5.20;;;27.50;96.70;;;;;;5063923;28;20052;-85
2022/07/27 00:33:33;;;;;;;10.32;6.25;;;27.40;96.70;;;;;;5083621;28;20106;-84
2022/07/27 00:36:03;;;;;;;9.15;5.80;;;27.40;96.70;;;;;;5070699;28;20460;-85
2022/07/27 00:38:31;;;;;;;7.55;5.43;;;27.40;96.70;;;;;;5076538;28;20048;-85
2022/07/27 00:41:02;;;;;;;9.73;5.40;;;27.30;96.70;;;;;;5063552;28;20508;-85
2022/07/27 00:43:30;;;;;;;9.80;5.20;;;27.40;96.70;;;;;;5060346;28;20048;-86
2022/07/27 00:45:58;;;;;;;10.18;5.78;;;27.60;96.70;;;;;;5075570;28;20094;-85
2022/07/27 00:48:31;;;;;;;10.15;5.97;;;27.60;96.70;;;;;;5084941;28;20047;-85
2022/07/27 00:51:02;;;;;;;10.05;5.93;;;27.50;96.70;;;;;;5076274;28;20101;-85
2022/07/27 00:53:30;;;;;;;9.23;5.32;;;27.30;96.70;;;;;;5079461;28;20139;-86
2022/07/27 00:55:59;;;;;;;14.10;6.03;;;27.30;96.70;;;;;;5082702;28;20050;-85
2022/07/27 00:58:28;;;;;;;10.10;6.07;;;27.20;96.70;;;;;;5083743;28;20159;-86
2022/07/27 01:01:14;;;;;;;12.27;5.97;;;27.00;96.70;;;;;;5082947;28;20399;-85
2022/07/27 01:03:42;;;;;;;;;;;26.90;96.70;;;;;;5058316;28;20052;-85
2022/07/27 01:06:17;;;;;;;7.82;5.72;;;26.90;96.70;;;;;;5079526;28;19981;-85
2022/07/27 01:11:43;;;;;;;9.48;5.72;;;26.90;96.70;;;;;;5044082;28;20139;-84
2022/07/27 01:14:12;;;;;;;7.97;5.63;;;27.00;96.70;;;;;;5067360;28;20151;-85
2022/07/27 01:16:41;;;;;;;9.15;5.38;;;27.10;96.70;;;;;;5078796;28;20044;-86
2022/07/27 01:19:10;;;;;;;12.02;5.68;;;27.20;96.70;;;;;;5081237;28;20493;-85
2022/07/27 01:21:40;;;;;;;9.95;5.50;;;27.10;96.70;;;;;;5086905;28;20122;-86
2022/07/27 01:24:08;;;;;;;8.57;5.78;;;27.00;96.70;;;;;;5090154;28;20588;-85
2022/07/27 01:26:37;;;;;;;11.63;6.00;;;27.10;96.70;;;;;;5065910;28;20109;-86
2022/07/27 01:29:05;;;;;;;7.15;5.57;;;27.10;96.70;;;;;;5054756;28;20102;-86
2022/07/27 01:31:33;;;;;;;9.43;5.53;;;27.00;96.70;;;;;;5084388;28;20494;-86
2022/07/27 01:34:03;;;;;;;8.88;6.43;;;27.00;96.70;;;;;;5063143;28;20044;-85
2022/07/27 01:36:31;;;;;;;9.15;6.03;;;27.10;96.70;;;;;;5077273;28;20111;-85
2022/07/27 01:39:01;;;;;;;10.77;5.88;;;27.20;96.70;;;;;;5081148;28;20056;-85
2022/07/27 01:41:29;;;;;;;10.20;6.30;;;27.10;96.70;;;;;;5088940;28;20114;-84
2022/07/27 01:43:57;;;;;;;7.43;6.20;;;27.00;96.70;;;;;;5078464;28;20044;-85
2022/07/27 01:46:25;;;;;;;9.00;6.20;;;27.10;96.70;;;;;;5073059;28;20036;-85
2022/07/27 01:48:53;;;;;;;10.48;6.55;;;27.10;96.70;;;;;;5069113;28;20044;-86
2022/07/27 01:51:21;;;;;;;11.93;7.25;;;27.20;96.70;;;;;;5082127;28;20052;-85
2022/07/27 01:53:49;;;;;;;12.43;6.63;;;27.10;96.70;;;;;;5070478;28;20395;-86
2022/07/27 01:56:18;;;;;;;13.70;6.80;;;27.10;96.70;;;;;;5081541;28;20044;-85
2022/07/27 01:58:46;;;;;;;9.48;6.32;;;27.00;96.70;;;;;;5082901;28;20068;-85
2022/07/27 02:01:14;;;;;;;7.43;5.70;;;26.90;96.70;;;;;;5080759;28;20421;-85
2022/07/27 02:03:42;;;;;;;6.82;6.13;;;26.90;96.70;;;;;;5076646;28;20064;-85
2022/07/27 02:06:10;;;;;;;7.82;6.85;;;26.90;96.70;;;;;;5082139;28;20059;-86
2022/07/27 02:08:38;;;;;;;8.80;6.60;;;27.00;96.70;;;;;;5063198;28;20152;-87
2022/07/27 02:14:05;;;;;;;;;;;27.00;96.70;;;;;;5022302;28;20060;-84
2022/07/27 02:16:33;;;;;;;8.85;6.60;;;26.90;96.70;;;;;;5069739;28;19924;-84
2022/07/27 02:19:02;;;;;;;10.30;6.82;;;26.90;96.70;;;;;;5080557;28;20632;-84
2022/07/27 02:21:35;;;;;;;8.88;6.70;;;26.90;96.70;;;;;;5063442;28;20044;-84
2022/07/27 02:24:04;;;;;;;9.10;6.47;;;26.90;96.70;;;;;;5065609;28;20063;-85
2022/07/27 02:26:32;;;;;;;6.93;6.22;;;26.90;96.70;;;;;;5081533;28;20044;-84
2022/07/27 02:29:00;;;;;;;6.97;6.00;;;26.70;96.70;;;;;;5083611;28;20055;-84
2022/07/27 02:31:29;;;;;;;8.57;6.32;;;26.80;96.70;;;;;;5077792;28;20037;-84
2022/07/27 02:33:59;;;;;;;10.38;6.78;;;26.70;96.70;;;;;;5073731;28;20147;-84
2022/07/27 02:36:30;;;;;;;9.90;6.20;;;26.60;96.70;;;;;;5082289;28;20127;-84
2022/07/27 02:38:58;;;;;;;6.63;5.90;;;26.70;96.70;;;;;;5083190;28;20051;-84
2022/07/27 02:41:26;;;;;;;9.75;6.47;;;26.70;96.70;;;;;;5065153;28;20044;-85
2022/07/27 02:43:54;;;;;;;7.28;5.35;;;26.80;96.70;;;;;;5066019;28;20048;-85
2022/07/27 02:46:22;;;;;;;6.43;5.75;;;26.90;96.70;;;;;;5065984;28;20036;-85
2022/07/27 02:48:53;;;;;;;8.70;5.63;;;27.00;96.70;;;;;;5071762;28;20089;-85
2022/07/27 02:51:21;;;;;;;8.40;5.72;;;26.90;96.70;;;;;;5082909;28;20040;-85
2022/07/27 02:53:49;;;;;;;9.95;6.38;;;26.90;96.70;;;;;;5067201;28;20055;-86
2022/07/27 02:56:17;;;;;;;8.18;5.72;;;26.80;96.70;;;;;;5080819;28;20520;-86
2022/07/27 02:58:45;;;;;;;11.95;6.55;;;26.70;96.70;;;;;;5082550;28;20044;-86
2022/07/27 03:01:14;;;;;;;8.15;5.68;;;26.80;96.70;;;;;;5083859;28;20083;-86
2022/07/27 03:03:43;;;;;;;7.88;5.63;;;26.90;96.70;;;;;;5083401;28;20048;-84
2022/07/27 03:06:12;;;;;;;6.60;5.20;;;27.00;96.70;;;;;;5080551;28;20070;-85
2022/07/27 03:08:40;;;;;;;10.98;6.00;;;26.90;96.70;;;;;;5069293;28;20071;-85
2022/07/27 03:11:09;;;;;;;12.98;6.25;;;26.90;96.70;;;;;;5078570;28;20386;-86
2022/07/27 03:13:37;;;;;;;9.35;6.78;;;26.70;96.70;;;;;;5085250;28;20044;-85
2022/07/27 03:16:05;;;;;;;10.48;6.07;;;26.50;96.70;;;;;;5079972;28;20040;-85
2022/07/27 03:18:34;;;;;;;7.00;5.47;;;26.50;96.70;;;;;;5088124;28;20521;-86
2022/07/27 03:21:02;;;;;;;10.90;6.10;;;26.60;96.70;;;;;;5095603;28;20044;-86
2022/07/27 03:23:32;;;;;;;8.88;6.70;;;26.60;96.70;;;;;;5062541;28;20058;-86
2022/07/27 03:26:00;;;;;;;7.78;5.60;;;26.60;96.70;;;;;;5076821;28;20493;-85
2022/07/27 03:28:28;;;;;;;5.97;5.25;;;26.60;96.70;;;;;;5064921;28;20634;-85
2022/07/27 03:30:55;;;;;;;7.75;5.70;;;26.60;96.70;;;;;;5087733;28;20046;-85
2022/07/27 03:33:24;;;;;;;6.75;5.15;;;26.60;96.70;;;;;;5077408;28;20050;-85
2022/07/27 03:35:51;;;;;;;9.52;5.43;;;26.40;96.70;;;;;;5084498;28;20067;-86
2022/07/27 03:38:20;;;;;;;7.25;5.03;;;26.30;96.70;;;;;;5075475;28;20566;-86
2022/07/27 03:40:49;;;;;;;9.50;5.25;;;26.40;96.70;;;;;;5067332;28;20048;-86
2022/07/27 03:43:18;;;;;;;5.63;4.55;;;26.50;96.70;;;;;;5070416;28;20055;-83
2022/07/27 03:45:46;;;;;;;6.88;4.85;;;26.50;96.70;;;;;;5085876;28;20048;-84
2022/07/27 03:48:14;;;;;;;8.43;5.07;;;26.50;96.70;;;;;;5081884;28;20406;-83
2022/07/27 03:50:42;;;;;;;9.75;5.28;;;26.50;96.70;;;;;;5078475;28;20148;-82
2022/07/27 03:53:10;;;;;;;5.68;4.50;;;26.40;96.70;;;;;;5081305;28;20164;-83
2022/07/27 03:55:38;;;;;;;6.90;4.80;;;26.30;96.70;;;;;;5079574;28;20051;-83
2022/07/27 03:58:08;;;;;;;9.70;5.38;;;26.30;96.70;;;;;;5066087;28;20219;-83
2022/07/27 04:00:35;;;;;;;6.35;5.05;;;26.40;96.70;;;;;;5084355;28;20056;-83
2022/07/27 04:03:04;;;;;;;10.82;5.97;;;26.30;96.70;;;;;;5079665;28;20032;-83
2022/07/27 04:05:31;;;;;;;8.15;5.50;;;26.00;96.70;;;;;;5067308;28;20048;-83
2022/07/27 04:07:59;;;;;;;8.07;5.40;;;25.80;96.70;;;;;;5059742;28;20048;-83
2022/07/27 04:10:28;;;;;;;8.40;5.95;;;25.80;96.70;;;;;;5069496;28;20036;-83
2022/07/27 04:12:58;;;;;;;9.52;5.78;;;25.80;96.70;;;;;;5068220;28;20948;-83
2022/07/27 04:15:34;;;;;;;10.90;6.30;;;26.00;96.70;;;;;;5082991;28;20068;-83
2022/07/27 04:18:05;;;;;;;11.23;5.82;;;26.10;96.70;;;;;;5065619;28;20132;-83
2022/07/27 04:20:33;;;;;;;10.88;5.82;;;26.20;96.70;;;;;;5090012;28;20035;-83
2022/07/27 04:23:01;;;;;;;8.80;5.40;;;26.10;96.70;;;;;;5079641;28;20040;-83
2022/07/27 04:25:29;;;;;;;9.18;5.70;;;26.00;96.70;;;;;;5062343;28;20445;-83
2022/07/27 04:27:57;;;;;;;7.10;5.03;;;26.00;96.70;;;;;;5058015;28;20163;-83
2022/07/27 04:30:25;;;;;;;8.05;5.57;;;26.00;96.70;;;;;;5087091;28;20046;-81
2022/07/27 04:32:55;;;;;;;10.55;5.60;;;25.90;96.70;;;;;;5077074;28;20055;-82
2022/07/27 04:35:23;;;;;;;9.98;5.88;;;25.90;96.70;;;;;;5081435;28;20060;-81
2022/07/27 04:37:54;;;;;;;8.40;5.90;;;26.00;96.70;;;;;;5083511;28;20133;-81
2022/07/27 04:40:30;;;;;;;10.35;6.55;;;26.00;96.70;;;;;;5080918;28;20516;-82
2022/07/27 04:42:58;;;;;;;8.43;5.75;;;26.10;96.70;;;;;;5087239;28;20048;-83
2022/07/27 04:45:26;;;;;;;9.25;6.10;;;26.20;96.70;;;;;;5082310;28;20394;-83
2022/07/27 04:47:56;;;;;;;12.18;5.80;;;26.20;96.70;;;;;;5088033;28;20040;-82
2022/07/27 04:50:24;;;;;;;10.35;6.13;;;26.40;96.70;;;;;;5082559;28;20054;-83
2022/07/27 04:52:52;;;;;;;7.78;6.32;;;26.30;96.70;;;;;;5066489;28;20056;-83
2022/07/27 04:55:20;;;;;;;7.75;6.35;;;26.50;96.70;;;;;;5082602;28;20048;-82
2022/07/27 04:57:48;;;;;;;10.10;6.25;;;26.60;96.70;;;;;;5060286;28;20044;-82
2022/07/27 05:00:17;;;;;;;11.23;6.63;;;26.80;96.70;;;;;;5083730;28;20052;-83
2022/07/27 05:02:45;;;;;;;8.00;6.13;;;26.80;96.70;;;;;;5087152;28;20040;-83
2022/07/27 05:05:14;;;;;;;6.15;5.55;;;26.90;96.70;;;;;;5074660;28;20484;-82
2022/07/27 05:07:42;;;;;;;11.75;5.57;;;27.00;96.70;;;;;;5070157;28;20563;-83
2022/07/27 05:10:10;;;;;;;11.07;6.00;;;27.10;96.70;;;;;;5080702;28;20038;-82
2022/07/27 05:12:44;;;;;;;7.70;5.57;;;27.00;96.70;;;;;;5085931;28;20159;-82
2022/07/27 05:15:12;;;;;;;10.68;5.85;;;27.10;96.70;;;;;;5062817;28;20462;-83
2022/07/27 05:17:40;;;;;;;11.32;6.20;;;27.00;96.70;;;;;;5086037;28;20379;-83
2022/07/27 05:20:10;;;;;;;12.40;5.55;;;26.90;96.70;;;;;;5058727;28;20503;-83
2022/07/27 05:22:39;;;;;;;8.45;6.25;;;26.90;96.70;;;;;;5082450;28;20043;-83
2022/07/27 05:25:08;;;;;;;7.13;5.90;;;26.80;96.70;;;;;;5073348;28;20037;-83
2022/07/27 05:27:37;;;;;;;9.52;6.20;;;26.80;96.70;;;;;;5086555;28;20043;-82
2022/07/27 05:30:23;;;;;;;10.60;5.32;;;26.90;96.70;;;;;;5089659;28;20704;-83
2022/07/27 05:32:51;;;;;;;12.20;5.22;;;27.10;96.70;;;;;;5077027;28;20131;-81
2022/07/27 05:35:20;;;;;;;31.73;7.03;;;27.10;96.70;;;;;;5080752;28;20085;-79
2022/07/27 05:37:50;;;;;;;10.20;6.47;;;27.20;96.70;;;;;;5055688;28;20341;-79
2022/07/27 05:40:18;;;;;;;13.13;6.10;;;27.10;96.70;;;;;;5084457;28;20471;-80
2022/07/27 05:42:46;;;;;;;8.85;5.90;;;27.00;96.70;;;;;;5080069;28;20040;-80
2022/07/27 05:45:14;;;;;;;13.50;6.00;;;26.90;96.70;;;;;;5087356;28;20086;-79
2022/07/27 05:47:42;;;;;;;11.27;6.28;;;26.90;96.70;;;;;;5073832;28;20039;-80
2022/07/27 05:50:10;;;;;;;10.50;6.00;;;27.00;96.70;;;;;;5076745;28;20490;-84
2022/07/27 05:52:38;;;;;;;11.30;6.45;;;27.00;96.70;;;;;;5080094;28;20492;-80
2022/07/27 05:55:09;;;;;;;9.88;5.60;;;27.10;96.70;;;;;;5066622;28;20065;-84
2022/07/27 05:57:39;;;;;;;10.00;5.57;;;27.10;96.70;;;;;;5063452;28;20052;-85
2022/07/27 06:00:08;;;;;;;8.77;5.80;;;27.10;96.70;;;;;;5084426;28;20043;-77
2022/07/27 06:02:40;;;;;;;8.07;7.03;;;27.20;96.70;;;;;;5068320;28;20048;-86
2022/07/27 06:05:08;;;;;;;10.27;6.55;;;27.10;96.70;;;;;;5082221;28;20035;-86
2022/07/27 06:07:57;;;;;;;9.85;6.28;;;27.10;96.70;;;;;;5086650;28;20681;-85
2022/07/27 06:10:29;;;;;;;8.88;6.13;;;27.00;96.70;;;;;;5071427;28;20117;-86
2022/07/27 06:12:58;;;;;;;8.88;5.78;;;27.00;96.70;;;;;;5075725;28;20481;-84
2022/07/27 06:15:28;;;;;;;11.73;6.28;;;27.00;96.70;;;;;;5081131;28;20081;-81
2022/07/27 06:17:56;;;;;;;11.23;6.43;;;27.10;96.70;;;;;;5077710;28;20044;-80
2022/07/27 06:20:24;;;;;;;9.27;6.10;;;27.20;96.70;;;;;;5068826;28;20051;-80
2022/07/27 06:22:54;;;;;;;9.73;6.03;;;27.50;96.70;;;;;;5080609;28;20051;-83
2022/07/27 06:25:23;;;;;;;12.93;6.72;;;27.80;96.70;;;;;;5068288;28;20051;-82
2022/07/27 06:28:03;;;;;;;15.15;6.57;;;27.90;96.70;;;;;;5076774;28;20486;-84
2022/07/27 06:30:31;;;;;;;10.75;6.22;;;27.90;96.70;;;;;;5073240;28;20068;-82
2022/07/27 06:32:59;;;;;;;10.40;6.63;;;28.00;96.70;;;;;;5083238;28;20126;-81
2022/07/27 06:35:28;;;;;;;11.70;6.30;;;28.00;96.70;;;;;;5100345;28;20044;-82
2022/07/27 06:37:57;;;;;;;8.10;6.35;;;28.20;96.70;;;;;;5065507;28;20144;-82
2022/07/27 06:40:25;;;;;;;7.85;6.03;;;28.20;96.70;;;;;;5082725;28;20125;-83
2022/07/27 06:42:57;;;;;;;6.55;5.93;;;28.10;96.70;;;;;;5079977;28;20054;-83
2022/07/27 06:45:26;;;;;;;9.07;5.90;;;28.30;96.70;;;;;;5089033;28;20200;-83
2022/07/27 06:47:54;;;;;;;7.70;6.05;;;28.30;96.70;;;;;;5081476;28;20058;-83
2022/07/27 06:50:22;;;;;;;8.00;6.03;;;28.40;96.70;;;;;;5076541;28;20052;-83
2022/07/27 06:52:50;;;;;;;12.35;6.13;;;28.50;96.70;;;;;;5089647;28;20040;-83
2022/07/27 06:55:18;;;;;;;8.63;6.07;;;28.60;96.70;;;;;;5061855;28;20032;-83
2022/07/27 06:57:46;;;;;;;9.23;5.97;;;28.60;96.70;;;;;;5083562;28;20044;-83
2022/07/27 07:00:15;;;;;;;11.50;6.22;;;28.60;96.70;;;;;;5066203;28;20102;-82
2022/07/27 07:02:56;;;;;;;7.25;5.45;;;28.60;96.70;;;;;;5063601;28;20040;-82
2022/07/27 07:05:24;;;;;;;5.88;5.28;;;28.60;96.70;;;;;;5082329;28;20148;-83
2022/07/27 07:07:52;;;;;;;8.52;5.60;;;28.60;96.70;;;;;;5089958;28;20052;-83
2022/07/27 07:10:21;;;;;;;7.50;4.72;;;28.70;96.70;;;;;;5083940;28;20044;-83
2022/07/27 07:12:54;;;;;;;9.07;4.68;;;28.70;96.70;;;;;;5082232;28;20674;-83
2022/07/27 07:15:23;;;;;;;6.75;4.13;;;28.70;96.70;;;;;;5088320;28;20142;-82
2022/07/27 07:17:53;;;;;;;6.38;4.50;;;28.80;96.70;;;;;;5081912;28;20477;-81
2022/07/27 07:20:21;;;;;;;5.45;4.50;;;28.80;96.70;;;;;;5069819;28;20048;-83
2022/07/27 07:22:49;;;;;;;6.20;5.30;;;28.80;96.70;;;;;;5064413;28;20043;-83
2022/07/27 07:25:17;;;;;;;6.57;4.70;;;28.90;96.70;;;;;;5083623;28;20048;-83
2022/07/27 07:27:45;;;;;;;7.57;4.82;;;28.90;96.70;;;;;;5086974;28;20059;-88
2022/07/27 07:30:13;;;;;;;7.75;5.03;;;29.00;96.70;;;;;;5081231;28;20047;-89
2022/07/27 07:32:41;;;;;;;8.27;5.35;;;29.10;96.70;;;;;;5095409;28;20051;-90
2022/07/27 07:35:10;;;;;;;7.63;4.82;;;29.10;96.70;;;;;;5086749;28;20075;-87
2022/07/27 07:37:38;;;;;;;13.05;5.55;;;29.00;96.70;;;;;;5079998;28;20212;-87
2022/07/27 07:40:09;;;;;;;6.82;4.95;;;29.00;96.70;;;;;;5100718;28;20032;-89
2022/07/27 07:42:59;;;;;;;8.57;5.50;;;29.00;96.70;;;;;;5095911;28;20531;-89
2022/07/27 07:45:28;;;;;;;7.95;5.18;;;29.10;96.70;;;;;;5068850;28;20048;-88
2022/07/27 07:47:57;;;;;;;9.90;4.40;;;29.20;96.70;;;;;;5073320;28;20047;-90
2022/07/27 07:50:27;;;;;;;8.82;5.10;;;29.20;96.70;;;;;;5065121;28;20802;-89
2022/07/27 07:52:55;;;;;;;6.18;4.68;;;29.10;96.70;;;;;;5076209;28;20123;-87
2022/07/27 07:55:25;;;;;;;6.07;5.13;;;29.20;96.70;;;;;;5085596;28;20114;-87
2022/07/27 07:57:53;;;;;;;8.45;5.55;;;29.20;96.70;;;;;;5081595;28;20110;-86
2022/07/27 08:00:22;;;;;;;7.88;5.32;;;29.20;96.70;;;;;;5071028;28;20052;-88
2022/07/27 08:02:52;;;;;;;13.13;5.80;;;29.10;96.70;;;;;;5088934;28;20561;-88
2022/07/27 08:05:21;;;;;;;7.78;5.50;;;29.20;96.70;;;;;;5072829;28;20066;-85
2022/07/27 08:07:50;;;;;;;9.10;5.78;;;29.20;96.70;;;;;;5078011;28;20044;-86
2022/07/27 08:10:20;;;;;;;10.52;5.88;;;29.30;96.70;;;;;;5069512;28;20166;-87
2022/07/27 08:12:52;;;;;;;9.55;5.72;;;29.40;96.70;;;;;;5089035;28;20482;-88
2022/07/27 08:15:21;;;;;;;8.95;5.63;;;29.40;96.70;;;;;;5069203;28;20444;-87
2022/07/27 08:18:03;;;;;;;9.23;5.30;;;29.40;96.70;;;;;;5083307;28;20048;-87
2022/07/27 08:20:31;;;;;;;9.18;5.40;;;29.40;96.70;;;;;;5093121;28;20040;-87
2022/07/27 08:23:00;;;;;;;7.43;5.15;;;29.40;96.70;;;;;;5081413;28;20051;-86
2022/07/27 08:25:28;;;;;;;8.60;4.43;;;29.40;96.70;;;;;;5088996;28;20055;-87
2022/07/27 08:27:56;;;;;;;6.68;4.95;;;29.50;96.70;;;;;;5086152;28;20048;-86
2022/07/27 08:30:24;;;;;;;8.13;4.18;;;29.50;96.70;;;;;;5053589;28;20102;-87
2022/07/27 08:32:57;;;;;;;9.02;4.97;;;29.60;96.70;;;;;;5086163;28;20044;-86
2022/07/27 08:35:25;;;;;;;5.82;4.00;;;29.70;96.70;;;;;;5087668;28;20070;-87
2022/07/27 08:37:54;;;;;;;6.82;4.93;;;29.70;96.70;;;;;;5071411;28;20127;-85
2022/07/27 08:40:23;;;;;;;8.40;4.85;;;29.80;96.70;;;;;;5084735;28;20058;-86
2022/07/27 08:43:08;;;;;;;8.55;5.53;;;29.90;96.70;;;;;;5065312;28;20060;-85
2022/07/27 08:45:53;;;;;;;12.40;4.90;;;29.90;96.70;;;;;;5093408;28;20285;-86
2022/07/27 08:48:21;;;;;;;9.88;4.85;;;29.80;96.70;;;;;;5086413;28;20125;-87
2022/07/27 08:50:50;;;;;;;6.80;4.45;;;29.90;96.70;;;;;;5067136;28;20532;-87
2022/07/27 08:53:18;;;;;;;9.75;4.70;;;30.00;96.70;;;;;;5064591;28;20083;-87
2022/07/27 08:55:48;;;;;;;10.73;5.13;;;30.00;96.70;;;;;;5077430;28;20080;-87
2022/07/27 08:58:16;;;;;;;8.35;4.97;;;30.10;96.70;;;;;;5070812;28;20048;-87
2022/07/27 09:00:46;;;;;;;9.00;5.20;;;30.20;96.70;;;;;;5087023;28;20052;-88
2022/07/27 09:03:16;;;;;;;7.45;5.88;;;30.20;96.70;;;;;;5085497;28;20048;-87
2022/07/27 09:05:49;;;;;;;9.55;6.22;;;30.20;96.70;;;;;;5068160;28;20142;-87
2022/07/27 09:08:26;;;;;;;6.88;5.20;;;30.30;96.70;;;;;;5085943;28;20139;-86
2022/07/27 09:10:59;;;;;;;11.95;6.45;;;30.20;96.70;;;;;;5082479;28;20059;-88
2022/07/27 09:13:29;;;;;;;6.88;5.25;;;30.30;96.70;;;;;;5072150;28;20043;-87
2022/07/27 09:15:58;;;;;;;9.80;5.78;;;30.40;96.70;;;;;;5080487;28;20532;-88
2022/07/27 09:18:47;;;;;;;6.50;5.78;;;30.60;96.70;;;;;;5087017;28;20040;-87
2022/07/27 09:21:17;;;;;;;10.23;5.72;;;30.40;96.70;;;;;;5089188;28;20051;-87
2022/07/27 09:23:47;;;;;;;9.63;5.68;;;30.30;96.70;;;;;;5084145;28;20032;-86
2022/07/27 09:26:19;;;;;;;7.45;6.00;;;30.30;96.70;;;;;;5092270;28;20046;-87
2022/07/27 09:29:03;;;;;;;;;;;30.30;96.70;;;;;;5100245;28;20063;-87
2022/07/27 09:31:40;;;;;;;8.48;5.80;;;30.40;96.70;;;;;;5088580;28;20038;-88
2022/07/27 09:34:08;;;;;;;10.57;5.95;;;30.40;96.70;;;;;;5084030;28;20131;-86
2022/07/27 09:36:50;;;;;;;7.78;5.55;;;30.50;96.70;;;;;;5087942;28;20113;-85
2022/07/27 09:39:19;;;;;;;9.63;6.05;;;30.70;96.70;;;;;;5070228;28;20048;-85
2022/07/27 09:41:52;;;;;;;12.80;6.20;;;30.80;96.70;;;;;;5085691;28;20609;-90
2022/07/27 09:44:33;;;;;;;10.13;5.95;;;30.80;96.70;;;;;;5094527;28;20044;-87
2022/07/27 09:47:21;;;;;;;8.35;5.80;;;30.90;96.70;;;;;;5074000;28;20414;-87
2022/07/27 09:49:50;;;;;;;12.52;6.60;;;30.90;96.70;;;;;;5091674;28;20040;-86
2022/07/27 09:52:22;;;;;;;7.32;5.85;;;30.90;96.70;;;;;;5073603;28;20040;-86
2022/07/27 09:54:50;;;;;;;7.80;5.70;;;31.00;96.70;;;;;;5089258;28;20068;-86
2022/07/27 09:57:20;;;;;;;8.68;6.15;;;31.10;96.70;;;;;;5075760;28;20322;-86
2022/07/27 09:59:51;;;;;;;7.07;5.22;;;31.10;96.70;;;;;;5087141;28;20036;-85
2022/07/27 10:02:19;;;;;;;9.30;5.90;;;31.10;96.70;;;;;;5086524;28;20066;-85
2022/07/27 10:04:48;;;;;;;6.10;5.00;;;31.00;96.70;;;;;;5083655;28;20117;-85
2022/07/27 10:07:19;;;;;;;8.30;5.03;;;31.10;96.70;;;;;;5074695;28;20635;-88
2022/07/27 10:09:48;;;;;;;6.72;5.35;;;31.00;96.70;;;;;;5086428;28;20106;-85
2022/07/27 10:12:19;;;;;;;9.45;5.15;;;31.00;96.70;;;;;;5082031;28;20552;-86
2022/07/27 10:14:50;;;;;;;8.65;5.55;;;31.20;96.70;;;;;;5076545;28;20051;-86
2022/07/27 10:17:18;;;;;;;8.82;5.15;;;31.50;96.70;;;;;;5095315;28;20097;-83
2022/07/27 10:19:51;;;;;;;9.02;5.28;;;31.40;96.70;;;;;;5076729;28;20406;-83
2022/07/27 10:22:50;;;;;;;7.50;5.13;;;31.50;96.70;;;;;;5081471;28;20298;-81
2022/07/27 10:25:18;;;;;;;7.05;4.68;;;31.60;96.70;;;;;;5077584;28;20474;-78
2022/07/27 10:28:08;;;;;;;6.88;4.72;;;31.90;96.70;;;;;;5078848;28;20048;-78
2022/07/27 10:30:36;;;;;;;7.28;4.75;;;32.00;96.70;;;;;;5070270;28;20040;-78
2022/07/27 10:33:35;;;;;;;11.00;5.03;;;32.10;96.70;;;;;;5076598;28;20044;-78
2022/07/27 10:36:03;;;;;;;9.98;5.20;;;32.20;96.70;;;;;;5078977;28;20475;-80
2022/07/27 10:38:45;;;;;;;5.60;4.43;;;32.20;96.70;;;;;;5083885;28;20036;-79
2022/07/27 10:41:22;;;;;;;5.05;4.00;;;32.30;96.70;;;;;;5086737;28;20051;-80
2022/07/27 10:44:27;;;;;;;6.60;3.80;;;32.50;96.70;;;;;;5076063;28;20043;-81
2022/07/27 10:46:57;;;;;;;7.03;4.32;;;32.50;96.70;;;;;;5077934;28;20117;-78
2022/07/27 10:49:27;;;;;;;6.05;4.43;;;32.70;96.70;;;;;;5074367;28;20082;-77
2022/07/27 10:51:58;;;;;;;4.72;4.22;;;32.80;96.70;;;;;;5063114;28;20471;-78
2022/07/27 10:54:32;;;;;;;7.28;4.35;;;32.80;96.70;;;;;;5084572;28;20422;-81
2022/07/27 10:57:03;;;;;;;6.10;3.90;;;32.70;96.70;;;;;;5068314;28;20044;-80
2022/07/27 10:59:50;;;;;;;4.47;3.72;;;33.00;96.70;;;;;;5080764;28;20524;-84
2022/07/27 11:02:39;;;;;;;4.55;3.30;;;33.30;96.70;;;;;;5098093;28;20143;-83
2022/07/27 11:05:10;;;;;;;4.53;3.67;;;33.40;96.70;;;;;;5078862;28;20055;-83
2022/07/27 11:08:03;;;;;;;4.53;3.08;;;33.40;96.70;;;;;;5080917;28;20044;-83
2022/07/27 11:10:53;;;;;;;7.47;3.60;;;33.40;96.40;;;;;;5079311;28;20562;-83
2022/07/27 11:13:23;;;;;;;3.80;3.10;;;33.50;96.20;;;;;;5067651;28;20113;-83
2022/07/27 11:16:06;;;;;;;5.20;3.03;;;33.60;95.60;;;;;;5056806;28;20063;-83
2022/07/27 11:19:01;;;;;;;5.90;3.17;;;33.70;95.90;;;;;;5084471;28;20558;-82
2022/07/27 11:21:32;;;;;;;4.97;2.90;;;33.70;93.80;;;;;;5082239;28;20136;-82
2022/07/27 11:24:10;;;;;;;4.53;2.67;;;33.60;91.00;;;;;;5078497;28;20055;-82
2022/07/27 11:26:44;;;;;;;4.32;2.20;;;33.80;89.70;;;;;;5087199;28;20082;-82
2022/07/27 11:29:14;;;;;;;4.07;2.72;;;34.00;90.60;;;;;;5084172;28;20059;-83
2022/07/27 11:31:47;;;;;;;4.18;2.72;;;34.30;91.70;;;;;;5076136;28;20101;-83
2022/07/27 11:34:27;;;;;;;3.78;3.13;;;34.30;92.50;;;;;;5086255;28;20067;-82
2022/07/27 11:37:17;;;;;;;4.80;3.60;;;34.50;93.60;;;;;;5086542;28;20036;-83
2022/07/27 11:39:46;;;;;;;3.58;2.78;;;34.50;93.60;;;;;;5085711;28;20506;-82
2022/07/27 11:42:39;;;;;;;3.78;3.10;;;34.60;94.10;;;;;;5073269;28;20506;-82
2022/07/27 11:45:08;;;;;;;4.80;2.97;;;34.70;91.90;;;;;;5092660;28;20097;-82
2022/07/27 11:47:38;;;;;;;5.68;2.97;;;34.80;92.00;;;;;;5092274;28;20665;-82
2022/07/27 11:50:10;;;;;;;2.90;2.60;;;34.90;91.20;;;;;;5089099;28;20576;-83
2022/07/27 11:52:38;;;;;;;3.05;2.50;;;34.80;90.40;;;;;;5071873;28;20044;-82
2022/07/27 11:55:08;;;;;;;3.92;2.20;;;34.80;90.20;;;;;;5085600;28;20147;-82
2022/07/27 11:57:40;;;;;;;3.58;2.40;;;35.00;88.40;;;;;;5083139;28;20044;-83
2022/07/27 12:00:10;;;;;;;3.83;2.45;;;35.10;89.50;;;;;;5087622;28;20044;-83
2022/07/27 12:02:47;;;;;;;3.58;2.50;;;35.10;88.90;;;;;;5087824;28;20142;-83
2022/07/27 12:05:16;;;;;;;4.72;2.63;;;35.10;87.90;;;;;;5077988;28;20132;-82
2022/07/27 12:07:44;;;;;;;3.53;2.40;;;35.10;88.00;;;;;;5072157;28;20040;-82
2022/07/27 12:10:13;;;;;;;3.88;2.30;;;35.00;87.90;;;;;;5079773;28;20046;-82
2022/07/27 12:12:48;;;;;;;7.38;3.33;;;34.90;88.40;;;;;;5087173;28;20036;-82
2022/07/27 12:15:18;;;;;;;3.25;2.95;;;34.90;90.00;;;;;;5083493;28;20079;-82
2022/07/27 12:18:09;;;;;;;4.15;3.00;;;35.10;90.20;;;;;;5079071;28;20043;-82
2022/07/27 12:20:37;;;;;;;5.80;2.92;;;35.30;89.40;;;;;;5085659;28;20044;-82
2022/07/27 12:23:07;;;;;;;4.85;2.70;;;35.20;88.40;;;;;;5074736;28;20131;-82
2022/07/27 12:25:37;;;;;;;4.68;3.30;;;35.30;89.00;;;;;;5065614;28;20135;-82
2022/07/27 12:28:09;;;;;;;3.72;3.05;;;35.40;88.40;;;;;;5081383;28;20048;-82
2022/07/27 12:30:40;;;;;;;3.95;2.80;;;35.50;88.10;;;;;;5081186;28;20048;-83
2022/07/27 12:33:26;;;;;;;4.75;3.10;;;35.40;87.80;;;;;;5066213;28;20113;-82
2022/07/27 12:35:55;;;;;;;3.40;3.10;;;35.30;88.30;;;;;;5056987;28;20048;-83
2022/07/27 12:38:24;;;;;;;6.90;3.65;;;35.40;87.80;;;;;;5082678;28;20048;-82
2022/07/27 12:40:54;;;;;;;5.05;2.83;;;35.40;88.80;;;;;;5083929;28;20073;-83
2022/07/27 12:43:28;;;;;;;5.10;2.88;;;35.80;89.40;;;;;;5084344;28;20977;-82
2022/07/27 12:45:56;;;;;;;4.78;3.20;;;36.30;89.00;;;;;;5088771;28;20036;-83
2022/07/27 12:48:36;;;;;;;3.08;2.80;;;36.50;87.40;;;;;;5082817;28;20047;-83
2022/07/27 12:51:07;;;;;;;6.95;3.58;;;36.50;87.80;;;;;;5080893;28;20044;-82
2022/07/27 12:53:38;;;;;;;3.53;2.80;;;36.70;87.70;;;;;;5083198;28;20147;-83
2022/07/27 12:56:09;;;;;;;6.30;3.45;;;36.50;86.70;;;;;;5085034;28;20071;-82
2022/07/27 12:58:37;;;;;;;6.35;3.00;;;36.60;88.10;;;;;;5084476;28;20072;-81
2022/07/27 13:01:06;;;;;;;7.57;3.65;;;36.90;87.10;;;;;;5076166;28;20056;-81
2022/07/27 13:03:36;;;;;;;6.78;3.00;;;36.70;85.90;;;;;;5083182;28;20105;-82
2022/07/27 13:06:05;;;;;;;3.90;2.88;;;36.40;86.40;;;;;;5083808;28;20048;-81
2022/07/27 13:08:40;;;;;;;6.78;3.35;;;36.40;87.00;;;;;;5085481;28;20555;-82
2022/07/27 13:11:08;;;;;;;3.97;3.10;;;36.20;86.90;;;;;;5076021;28;20050;-82